NFTF/TBU METAR and TAF weather

Enter ICAO airport designator
Station Type Date Time Source
NFTF METAR 2021/08/05 03:00 UTC NOAA

NFTF 050300Z 16007KT 9999 FEW018 23/17 Q1014


Station Type Date Time Source
NFTF Decoded METAR 2021/08/05 03:00 UTC NOAA

Fua'Amotu, Tonga (NFTF) 21-14S 175-09W 41M
Aug 04, 2021 - 11:00 PM EDT / 2021.08.05 0300 UTC
Wind: from the SSE (160 degrees) at 8 MPH (7 KT):0
Visibility: greater than 7 mile(s):0
Sky conditions: mostly clear
Temperature: 73 F (23 C)
Dew Point: 62 F (17 C)
Relative Humidity: 68%
Pressure (altimeter): 29.94 in. Hg (1014 hPa)
ob: NFTF 050300Z 16007KT 9999 FEW018 23/17 Q1014
cycle: 3

Station Type Date Time Source
NFTF TAF 2021/08/04 18:06 UTC NOAA

TAF NFTF 041704Z 0418/0518 15007KT 9999 SCT017

Example: see airport list